Flight Track Log - Related Links

Times and Time Zones

All times are in EDT time to prevent confusion due to time zone crossing. See the DAL6246 flight status page for this flight to view local times or setup timezone preferences in your user account.

Time Position Orientation Groundspeed Altitude Reporting Facility
EDT Latitude Longitude Course Direction KTS MPH feet Rate Location/Type
Thu 11:01:44 PM 42.2294 -83.3367 49° Northeast 149 171 1,100  Level Cleveland Center
Thu 11:02:33 PM 42.2531 -83.3006 49° Northeast 171 197 2,800 1,859 Climbing Cleveland Center
Thu 11:02:55 PM 42.2619 -83.2869 49° Northeast 170 196 3,300 1,900 Climbing Cleveland Center
Thu 11:03:33 PM 42.2561 -83.2358 99° East 238 274 4,700 1,935 Climbing Cleveland Center
Thu 11:03:57 PM 42.2411 -83.2264 155° Southeast 221 254 5,300 2,361 Climbing Cleveland Center
Thu 11:04:34 PM 42.1853 -83.2289 182° South 273 314 7,100 2,903 Climbing Cleveland Center
Thu 11:04:59 PM 42.1547 -83.2339 187° South 271 312 8,300 2,852 Climbing Cleveland Center
Thu 11:05:35 PM 42.1086 -83.2464 191° South 287 330 10,000 2,754 Climbing Cleveland Center
Thu 11:06:00 PM 42.0761 -83.2519 187° South 281 323 11,100 1,655 Climbing Cleveland Center
Thu 11:07:02 PM 41.9861 -83.2722 190° South 319 367 12,400 1,512 Climbing Cleveland Center
Thu 11:08:03 PM 41.8975 -83.2922 190° South 358 412 14,200 2,000 Climbing Cleveland Center
Thu 11:09:05 PM 41.7783 -83.3467 199° South 375 432 16,500 1,887 Climbing Cleveland Center
Thu 11:10:07 PM 41.6767 -83.3953 200° South 384 442 18,100 1,659 Climbing Cleveland Center
Thu 11:11:08 PM 41.5725 -83.4453 200° South 392 451 19,900 1,756 Climbing Cleveland Center
Thu 11:12:10 PM 41.4644 -83.4778 193° South 401 461 21,700 1,805 Climbing Cleveland Center
Thu 11:13:11 PM 41.3564 -83.4125 156° South 424 488 23,600 1,561 Climbing Cleveland Center
Thu 11:14:13 PM 41.2511 -83.3406 153° Southeast 425 489 24,900 1,122 Climbing Cleveland Center
Thu 11:15:14 PM 41.1414 -83.2664 153° Southeast 438 504 25,900 1,073 Climbing Cleveland Center
Thu 11:16:16 PM 41.0083 -83.1769 153° Southeast 451 519 27,100 1,122 Climbing Cleveland Center
Thu 11:17:17 PM 40.8964 -83.1033 154° Southeast 457 526 28,200 1,131 Climbing Cleveland Center
Thu 11:18:18 PM 40.7792 -83.0239 153° Southeast 459 528 29,400 1,073 Climbing Cleveland Center
Thu 11:19:20 PM 40.6656 -82.9472 153° Southeast 459 528 30,400 849 Climbing Cleveland Center
Thu 11:20:04 PM 40.5917 -82.8986 153° Southeast 460 529 30,900 914 Climbing Indianapolis Center
Thu 11:21:05 PM 40.4597 -82.7978 150° Southeast 466 536 32,000 1,033 Climbing Indianapolis Center
Thu 11:22:06 PM 40.3531 -82.6964 144° Southeast 470 541 33,000 984 Climbing Indianapolis Center
Thu 11:23:07 PM 40.2483 -82.5958 144° Southeast 470 541 34,000 984 Climbing Indianapolis Center
Thu 11:24:08 PM 40.1447 -82.5017 145° Southeast 467 537 35,000 984 Climbing Indianapolis Center
Thu 11:25:09 PM 40.0406 -82.4072 145° Southeast 458 527 36,000 984 Climbing Indianapolis Center
Thu 11:26:10 PM 39.9383 -82.3158 146° Southeast 452 520 37,000 488 Climbing Indianapolis Center
Thu 11:27:12 PM 39.8375 -82.2242 145° Southeast 446 513 37,000  Level Indianapolis Center
Thu 11:28:13 PM 39.7328 -82.1303 145° Southeast 450 518 37,000  Level Indianapolis Center
Thu 11:29:14 PM 39.6236 -82.0311 145° Southeast 452 520 37,000  Level Indianapolis Center
Thu 11:30:15 PM 39.5183 -81.9378 146° Southeast 455 524 37,000  Level Indianapolis Center
Thu 11:31:16 PM 39.4139 -81.8450 146° Southeast 455 524 37,000  Level Indianapolis Center
Thu 11:32:18 PM 39.3103 -81.7542 146° Southeast 454 522 37,000  Level Indianapolis Center
Thu 11:33:19 PM 39.2058 -81.6619 146° Southeast 454 522 37,000  Level Indianapolis Center
Thu 11:34:20 PM 39.1039 -81.5703 145° Southeast 452 520 37,000  Level Indianapolis Center
Thu 11:35:21 PM 38.9997 -81.4792 146° Southeast 451 519 37,000  Level Indianapolis Center
Thu 11:36:22 PM 38.8958 -81.3872 145° Southeast 450 518 37,000  Level Indianapolis Center
Thu 11:37:23 PM 38.7897 -81.2956 146° Southeast 450 518 37,000  Level Indianapolis Center
Thu 11:38:25 PM 38.6844 -81.2042 146° Southeast 450 518 37,000  Level Indianapolis Center
Thu 11:39:26 PM 38.5806 -81.1169 147° Southeast 447 514 37,000  Level Indianapolis Center
Thu 11:40:27 PM 38.4772 -81.0283 146° Southeast 444 511 37,000  Level Indianapolis Center
Thu 11:41:28 PM 38.3517 -80.9206 146° Southeast 446 513 37,000 -590 Level Indianapolis Center
Thu 11:42:29 PM 38.2475 -80.8322 146° Southeast 446 513 35,800 -1,463 Descending Indianapolis Center
Thu 11:43:31 PM 38.1431 -80.7447 147° Southeast 447 514 34,000 -1,805 Descending Indianapolis Center
Thu 11:44:32 PM 38.0378 -80.6556 146° Southeast 448 516 32,100 -1,891 Descending Indianapolis Center
Thu 11:45:03 PM 37.9786 -80.6106 149° Southeast 446 513 31,100 -1,915 Descending Washington Center
Thu 11:46:06 PM 37.8717 -80.5192 146° Southeast 453 521 29,100 -1,983 Descending Washington Center
Thu 11:47:04 PM 37.7647 -80.4308 147° Southeast 453 521 27,100 -1,059 Descending Washington Center
Thu 11:48:05 PM 37.6619 -80.3428 146° Southeast 458 527 27,000 -50 Descending Washington Center
Thu 11:49:04 PM 37.5569 -80.2550 146° Southeast 458 527 27,000 -545 Level Washington Center
Thu 11:50:39 PM 37.3903 -80.1114 146° Southeast 460 529 25,600 -923 Descending Indianapolis Center
Thu 11:51:40 PM 37.3000 -80.0000 136° Southeast 466 536 24,600 -984 Descending Indianapolis Center
Thu 11:52:41 PM 37.2211 -79.8750 128° Southeast 465 535 23,600 -780 Descending Indianapolis Center
Thu 11:53:43 PM 37.1394 -79.7561 131° Southeast 461 531 23,000 -250 Descending Indianapolis Center
Thu 11:55:05 PM 37.0106 -79.6156 139° Southeast 449 517 23,000 -592 Level Washington Center
Thu 11:56:05 PM 36.9181 -79.5122 138° Southeast 444 511 21,600 -1,600 Descending Washington Center
Thu 11:57:05 PM 36.8275 -79.4117 138° Southeast 444 511 19,800 -5,752 Descending Washington Center
Thu 11:58:06 PM 36.7431 -79.3142 137° Southeast 432 497 10,000 -1,866 Descending Washington Center
Thu 11:59:04 PM 36.6600 -79.2247 139° Southeast 414 476 16,100 2,350 Climbing Washington Center
Fri 12:00:06 AM 36.5792 -79.1381 139° Southeast 402 463 14,700 -1,438 Descending Washington Center
Fri 12:01:05 AM 36.4944 -79.0439 138° Southeast 389 448 13,200 -1,526 Descending Washington Center
Fri 12:02:00 AM 36.4194 -78.9656 140° Southeast 375 432 11,800 -1,418 Descending Washington Center
Fri 12:02:55 AM 36.3433 -78.9236 156° South 319 367 10,600 -1,231 Descending Washington Center
Fri 12:03:57 AM 36.2556 -78.9328 185° South 302 348 9,400 -1,171 Descending Washington Center
Fri 12:04:58 AM 36.1781 -78.9425 186° South 296 341 8,200 -1,200 Descending Washington Center
Fri 12:05:57 AM 36.0942 -78.9542 186° South 296 341 7,000 -1,250 Descending Washington Center
Fri 12:06:58 AM 36.0022 -78.9658 186° South 306 352 5,700 -1,031 Descending Washington Center
Fri 12:08:05 AM 35.9183 -78.9775 186° South 304 350 4,800 -1,033 Descending Washington Center
Fri 12:09:00 AM 35.8600 -78.9700 174° South 240 276 3,600 -1,316 Descending Washington Center
Fri 12:09:59 AM 35.8136 -78.9192 138° Southeast 214 246 2,300 -807 Descending Washington Center
Fri 12:10:59 AM 35.8192 -78.8708 82° East 121 139 2,000 -488 Descending Washington Center
Fri 12:12:02 AM 35.8428 -78.8411 46° Northeast 119 137 1,300 -732 Descending Washington Center
Fri 12:13:02 AM 35.8708 -78.8064 45° Northeast 140 161 500 -800 Descending Washington Center
Fri 12:15:00 AM 35.8667 -78.7833 90° East  Level FlightAware Approximate
Fri 12:22:00 AM 35.8776 -78.7875 90° East  Level Estimated
Fri 12:23:00 AM 35.8776 -78.7875 90° East  Level Estimated

Login

Don't have an account? Register now (free) for customized features, flight alerts, and more!